Brooks, Kentucky
Current Conditions -  °F | °C
As of 8:56 AM on Sunday 25 Jan 2015 (Local Time) from KSDF Reporting Station
Overcast Overcast  
Wind Chill:   Ceiling: 8000
Heat Index:   Visibility: 10mi
Dew Point:   Wind: 7mph
Humidity: 73%   Direction: 140°SE
Pressure: 29.71"   Gusts: NA
Location:  38.06°N, 85.71°W
Report Text: KSDF 251356Z 14006KT 10SM BKN080 OVC120 04/00 A2971 RMK AO2 SLP064 T00440000
Loading
Personal Weather Stations






























Interactive Weather Map New forecast layout! Learn more

10-Day Weather Forecast

Advertisements
Track Severe Weather on mobile